Brook Park, Minnesota
Current Conditions -  °F | °C
As of 4:23 PM on Thursday 23 Oct 2014 (Local Time) from K04W Reporting Station
Clear Clear  
Wind Chill: 63°   Ceiling: Unl
Heat Index: 63°   Visibility: 10mi
Dew Point: 52°   Wind: 5mph
Humidity: 68%   Direction: 170°S
Pressure: 29.94"   Gusts: NA
Location:  45.95°N, 93.08°W
Report Text: K04W 232123Z AUTO 17004KT 10SM CLR 17/11 A2994 RMK AO2
Loading
Personal Weather Stations






























Interactive Weather Map
Tropical Storm Tracking
New forecast layout! Learn more

10-Day Weather Forecast

Advertisements
Track Severe Weather on mobile